Airport View

Enter AWOS ICAO identifier for current METAR.

ex. KFNL

KALB 191851Z 18008KT 10SM FEW029 SCT070 OVC085 24/18 A2980 RMK AO2 SLP088 T02440178

19 Jun 2019 19:25

Phone: 518-464-6423

Other Area AWOS: KSCH - KDDH - KNY0 - KAQW

TAF KALB 191746Z 1918/2018 18011G16KT P6SM SCT027 BKN100 BKN250 FM192000 18009KT P6SM -SHRA BKN050 FM200200 17006KT P6SM -SHRA BKN015 FM200600 17005KT 2SM BR BKN008 FM200700 16004KT 2SM BR BKN001 FM201200 VRB03KT P6SM BKN008 PROB30 2012/2016 4SM -SHRA OVC003 FM201600 VRB03KT 6SM -SHRA OVC015